Natchez, MS (39120)

3:46 AM CST on February 23, 2017 (GMT -0600)
Morgantown | | Change Station
Active Advisory: Dense Fog Advisory

Elev 200 ft 31.57 °N, 91.36 °W | Updated 34 seconds ago

Clear
Clear
49.4 °F
Feels Like 49 °F
N
0.0
Wind Variable Wind from NNE

Today
High -- | Low -- °F
--% Chance of Precip.
Yesterday
High -- | Low -- °F
Precip. -- in
Pressure 29.79 in
Visibility 10.0 miles
Clouds Clear
Windchill 49 °F
Dew Point 49 °F
Humidity 98%
Rainfall 0.00 in
Snow Depth Not available.
6:38 AM 5:59 PM
Waning Crescent, 11% visible
METAR KHEZ 230935Z AUTO 00000KT 10SM CLR 11/08 A2979 RMK AO1
Pressure 29.79 in
Visibility 10.0 miles
Clouds Clear
Windchill 49 °F
Dew Point 49 °F
Humidity 98%
Rainfall 0.00 in
Snow Depth Not available.
6:38 AM 5:59 PM
Waning Crescent, 11% visible
METAR KHEZ 230935Z AUTO 00000KT 10SM CLR 11/08 A2979 RMK AO1

Get Your Daily Forecast Email!

Thanks for signing up!

Be on the lookout for a verification email in your inbox.

You'll start receiving the daily forecast at 8 AM.

×

10-Day Weather Forecast

Almanac

Astronomy

Feb. 23, 2017 Rise Set
Actual Time
Civil Twilight
Nautical Twilight
Astronomical Twilight
Moon
Length of Visible Light
Length of Day
Tomorrow will be .
, % of the Moon is Illuminated

Today's Extremes

State Highs State Lows

Community

WunderPhotos

Upload Photos

1,962,540 photos uploaded!

WunderBlog® & News

Nearby

Air Quality

  Air Quality AQ Index Pollutant
Not available.

Snow Depth

Station Depth Elevation

Earthquake Activity

City Distance Mag. Time & Date
Minimum magnitude displayed is 2.5.

Coastal Water Temperatures

Place Temperature

Stations

Nearby Weather Stations

Station Location Temp. Windchill Dew Point Humidity Wind Precip. Elev Updated Type
                   

Watches & Warnings

Dense Fog Advisory
Issued: 3:45 AM CST Feb. 23, 2017 – National Weather Service

... Dense fog advisory remains in effect until 10 am CST this
morning...

* visibility... areas of dense fog will reduce visibility at
times at or below one quarter mile, especially along and east
of Interstate 55.

* Impacts... poor visibility will result in hazardous travel
conditions, especially along and east of Interstate 55.

Precautionary/preparedness actions...

A dense fog advisory means visibilities will frequently be
reduced to less than one quarter mile. If driving, slow down, use
your headlights, and leave plenty of distance ahead of you.



17